Noxville, Texas
Current Conditions -  °F | °C
As of 10:35 PM on Wednesday 26 Nov 2014 (Local Time) from KT82 Reporting Station
Clear Clear  
Wind Chill: 42°   Ceiling: Unl
Heat Index: 42°   Visibility: 10mi
Dew Point: 34°   Wind: 0mph
Humidity: 72%   Direction: NA
Pressure: 30.34"   Gusts: NA
Location:  30.3145°N, 99.2255°W
Report Text: KT82 270435Z AUTO 00000KT 10SM CLR 06/01 A3034 RMK AO2 T00550009
Loading
Personal Weather Stations






























Interactive Weather Map New forecast layout! Learn more

10-Day Weather Forecast

Advertisements
Track Severe Weather on mobile